Time;durP1;ratioP1;P1;durP2;ratioP2;P2;SDS_P1;SDS_P2;PMS_P1;PMS_P2;Temp;Humidity;BMP_temperature;BMP_pressure;BME280_temperature;BME280_humidity;BME280_pressure;Samples;Min_cycle;Max_cycle;Signal;HPM_P1;HPM_P2
2021/11/09 00:01:06;;;;;;;40.30;29.63;;;;;;;;;;143727;577;46021;-56
2021/11/09 00:03:39;;;;;;;51.47;35.42;;;;;;;;;;143730;576;46020;-55
2021/11/09 00:09:12;;;;;;;48.63;31.17;;;;;;;;;;143724;598;46020;-56
2021/11/09 00:11:39;;;;;;;59.95;37.58;;;;;;;;;;143722;606;46020;-56
2021/11/09 00:14:07;;;;;;;50.05;34.25;;;;;;;;;;143729;616;46021;-56
2021/11/09 00:16:34;;;;;;;47.08;32.85;;;;;;;;;;143727;624;46023;-57
2021/11/09 00:19:02;;;;;;;53.30;33.67;;;;;;;;;;143726;581;46020;-56
2021/11/09 00:21:29;;;;;;;60.35;36.95;;;;;;;;;;143728;618;46021;-56
2021/11/09 00:24:00;;;;;;;43.83;30.73;;;;;;;;;;143728;583;46020;-56
2021/11/09 00:26:28;;;;;;;64.43;46.45;;;;;;;;;;143729;609;46022;-55
2021/11/09 00:28:55;;;;;;;78.75;54.47;;;;;;;;;;143728;600;46021;-56
2021/11/09 00:31:22;;;;;;;81.70;56.03;;;;;;;;;;143726;567;46020;-55
2021/11/09 00:33:49;;;;;;;62.15;43.78;;;;;;;;;;143729;642;46020;-56
2021/11/09 00:36:16;;;;;;;81.12;55.47;;;;;;;;;;143722;608;46022;-56
2021/11/09 00:38:45;;;;;;;49.15;36.53;;;;;;;;;;143728;649;46020;-56
2021/11/09 00:41:12;;;;;;;50.58;37.47;;;;;;;;;;143726;582;46020;-57
2021/11/09 00:43:39;;;;;;;67.05;41.47;;;;;;;;;;143727;619;46021;-56
2021/11/09 00:46:06;;;;;;;71.00;44.70;;;;;;;;;;143727;592;46022;-57
2021/11/09 00:48:33;;;;;;;56.63;36.30;;;;;;;;;;143726;594;47010;-57
2021/11/09 00:51:00;;;;;;;65.95;38.80;;;;;;;;;;143730;611;46021;-56
2021/11/09 00:53:27;;;;;;;45.38;33.00;;;;;;;;;;143729;567;46020;-56
2021/11/09 00:55:54;;;;;;;68.15;45.40;;;;;;;;;;143729;577;46022;-56
2021/11/09 00:58:21;;;;;;;56.92;38.13;;;;;;;;;;143726;602;46012;-56
2021/11/09 01:00:48;;;;;;;60.90;38.03;;;;;;;;;;143720;626;46020;-56
2021/11/09 01:03:16;;;;;;;51.08;35.88;;;;;;;;;;143730;586;46020;-57
2021/11/09 01:05:44;;;;;;;69.78;40.83;;;;;;;;;;143721;593;46022;-57
2021/11/09 01:08:15;;;;;;;58.90;38.55;;;;;;;;;;143726;716;46020;-56
2021/11/09 01:10:48;;;;;;;52.65;34.85;;;;;;;;;;143726;592;46020;-56
2021/11/09 01:13:16;;;;;;;45.75;33.40;;;;;;;;;;143730;589;46021;-57
2021/11/09 01:15:50;;;;;;;45.42;31.12;;;;;;;;;;143729;575;46023;-57
2021/11/09 01:18:24;;;;;;;44.58;31.35;;;;;;;;;;143726;563;46020;-57
2021/11/09 01:20:51;;;;;;;43.85;34.50;;;;;;;;;;143723;614;46020;-56
2021/11/09 01:23:19;;;;;;;43.85;31.95;;;;;;;;;;143725;590;46020;-56
2021/11/09 01:25:46;;;;;;;45.78;31.52;;;;;;;;;;143721;634;46022;-56
2021/11/09 01:28:13;;;;;;;55.03;34.08;;;;;;;;;;143724;580;46029;-57
2021/11/09 01:30:41;;;;;;;50.25;30.70;;;;;;;;;;143724;615;46020;-57
2021/11/09 01:33:09;;;;;;;35.83;28.25;;;;;;;;;;143727;565;46020;-56
2021/11/09 01:35:36;;;;;;;40.97;28.92;;;;;;;;;;143726;606;47021;-56
2021/11/09 01:38:04;;;;;;;41.55;29.95;;;;;;;;;;143725;636;46020;-56
2021/11/09 01:40:33;;;;;;;40.40;30.45;;;;;;;;;;143723;641;46020;-55
2021/11/09 01:43:01;;;;;;;47.13;30.35;;;;;;;;;;143726;587;46021;-56
2021/11/09 01:45:29;;;;;;;47.03;31.65;;;;;;;;;;143724;629;46023;-57
2021/11/09 01:47:56;;;;;;;49.65;31.10;;;;;;;;;;143725;577;46020;-57
2021/11/09 01:50:27;;;;;;;40.15;28.83;;;;;;;;;;143719;585;46021;-56
2021/11/09 01:52:55;;;;;;;56.45;34.15;;;;;;;;;;143725;566;46021;-56
2021/11/09 01:55:24;;;;;;;50.95;36.03;;;;;;;;;;143722;604;47022;-57
2021/11/09 01:57:52;;;;;;;46.30;33.75;;;;;;;;;;143724;570;46917;-56
2021/11/09 02:00:25;;;;;;;46.30;32.30;;;;;;;;;;143723;569;46021;-57
2021/11/09 02:02:53;;;;;;;50.17;34.95;;;;;;;;;;143726;568;46020;-56
2021/11/09 02:05:21;;;;;;;53.92;34.35;;;;;;;;;;143727;618;46022;-56
2021/11/09 02:07:50;;;;;;;57.10;35.03;;;;;;;;;;143724;616;46020;-56
2021/11/09 02:10:21;;;;;;;56.00;36.78;;;;;;;;;;143725;644;46020;-57
2021/11/09 02:12:48;;;;;;;52.22;33.50;;;;;;;;;;143727;594;46043;-57
2021/11/09 02:15:15;;;;;;;54.42;36.92;;;;;;;;;;143721;813;46023;-56
2021/11/09 02:17:45;;;;;;;49.67;35.38;;;;;;;;;;143724;583;46020;-57
2021/11/09 02:20:15;;;;;;;48.38;33.50;;;;;;;;;;143724;593;46020;-56
2021/11/09 02:22:42;;;;;;;61.70;39.08;;;;;;;;;;143727;581;46020;-57
2021/11/09 02:25:12;;;;;;;59.55;39.53;;;;;;;;;;143726;587;46022;-57
2021/11/09 02:27:40;;;;;;;66.25;41.70;;;;;;;;;;143724;596;46021;-56
2021/11/09 02:30:11;;;;;;;60.25;39.60;;;;;;;;;;143723;569;46020;-57
2021/11/09 02:32:38;;;;;;;73.82;53.75;;;;;;;;;;143727;589;46020;-56
2021/11/09 02:35:08;;;;;;;75.85;53.40;;;;;;;;;;143726;589;46021;-56
2021/11/09 02:37:35;;;;;;;51.05;37.35;;;;;;;;;;143725;597;46020;-57
2021/11/09 02:40:04;;;;;;;49.63;37.33;;;;;;;;;;143721;567;46020;-57
2021/11/09 02:42:36;;;;;;;58.05;37.55;;;;;;;;;;143728;579;46020;-56
2021/11/09 02:45:19;;;;;;;51.72;35.63;;;;;;;;;;143727;615;47020;-56
2021/11/09 02:47:58;;;;;;;42.53;30.92;;;;;;;;;;143724;573;46020;-57
2021/11/09 02:50:29;;;;;;;42.10;28.92;;;;;;;;;;143724;700;46020;-57
2021/11/09 02:53:01;;;;;;;54.55;36.35;;;;;;;;;;143728;589;46020;-55
2021/11/09 02:55:37;;;;;;;53.50;36.40;;;;;;;;;;143727;780;46022;-57
2021/11/09 03:01:15;;;;;;;52.00;35.15;;;;;;;;;;143727;604;46022;-56
2021/11/09 03:03:55;;;;;;;52.33;35.53;;;;;;;;;;143721;566;46019;-56
2021/11/09 03:06:30;;;;;;;36.47;28.40;;;;;;;;;;143718;644;47023;-57
2021/11/09 03:11:56;;;;;;;43.70;31.70;;;;;;;;;;143728;602;46021;-56
2021/11/09 03:14:25;;;;;;;46.43;34.07;;;;;;;;;;143728;565;46020;-56
2021/11/09 03:16:54;;;;;;;54.00;39.25;;;;;;;;;;143725;642;47022;-57
2021/11/09 03:19:37;;;;;;;63.60;45.47;;;;;;;;;;143726;628;46021;-55
2021/11/09 03:44:21;;;;;;;48.40;30.80;;;;;;;;;;143725;619;46021;-56
2021/11/09 03:46:52;;;;;;;43.10;28.52;;;;;;;;;;143728;566;46020;-57
2021/11/09 03:49:22;;;;;;;44.10;30.05;;;;;;;;;;143727;628;46022;-57
2021/11/09 03:51:49;;;;;;;41.60;28.75;;;;;;;;;;143723;605;46028;-57
2021/11/09 03:54:18;;;;;;;40.30;32.53;;;;;;;;;;143726;589;46020;-57
2021/11/09 03:56:53;;;;;;;47.40;35.38;;;;;;;;;;143726;566;46020;-57
2021/11/09 04:02:21;;;;;;;47.62;33.70;;;;;;;;;;143726;582;45914;-57
2021/11/09 04:04:52;;;;;;;58.63;36.97;;;;;;;;;;143723;588;46021;-57
2021/11/09 04:07:32;;;;;;;46.67;32.17;;;;;;;;;;143727;564;46020;-56
2021/11/09 04:10:23;;;;;;;54.03;34.25;;;;;;;;;;143727;633;46022;-56
2021/11/09 04:13:02;;;;;;;47.08;32.55;;;;;;;;;;143726;578;46010;-56
2021/11/09 04:15:44;;;;;;;39.30;28.35;;;;;;;;;;143722;564;46911;-56
2021/11/09 04:18:30;;;;;;;50.15;30.23;;;;;;;;;;143725;703;46020;-56
2021/11/09 04:21:27;;;;;;;37.50;27.85;;;;;;;;;;143726;569;46023;-57
2021/11/09 04:45:08;;;;;;;45.45;27.98;;;;;;;;;;143749;595;45012;-57
2021/11/09 04:52:34;;;;;;;45.10;30.88;;;;;;;;;;143751;602;45010;-55
2021/11/09 05:09:07;;;;;;;50.75;32.92;;;;;;;;;;143745;722;47020;-56
2021/11/09 05:11:34;;;;;;;58.22;41.42;;;;;;;;;;143740;587;46910;-56
2021/11/09 05:14:01;;;;;;;59.13;36.78;;;;;;;;;;143750;735;45020;-57
2021/11/09 05:16:28;;;;;;;41.63;29.27;;;;;;;;;;143752;590;46020;-56
2021/11/09 05:18:55;;;;;;;56.22;37.70;;;;;;;;;;143744;576;46010;-57
2021/11/09 05:21:22;;;;;;;55.30;38.10;;;;;;;;;;143747;573;45020;-56
2021/11/09 05:23:49;;;;;;;44.42;33.05;;;;;;;;;;143750;566;45020;-56
2021/11/09 05:26:16;;;;;;;51.25;38.45;;;;;;;;;;143746;595;46022;-56
2021/11/09 05:28:45;;;;;;;84.87;56.90;;;;;;;;;;143729;569;46020;-56
2021/11/09 05:31:14;;;;;;;73.03;49.47;;;;;;;;;;143725;628;46020;-57
2021/11/09 05:33:41;;;;;;;79.35;59.97;;;;;;;;;;143728;581;46020;-57
2021/11/09 05:36:10;;;;;;;75.87;55.38;;;;;;;;;;143725;594;46023;-56
2021/11/09 05:38:50;;;;;;;65.85;46.95;;;;;;;;;;143724;583;46020;-56
2021/11/09 05:41:20;;;;;;;52.17;35.28;;;;;;;;;;143726;565;46020;-55
2021/11/09 05:43:47;;;;;;;61.83;36.85;;;;;;;;;;143725;598;46020;-56
2021/11/09 05:46:15;;;;;;;57.00;37.38;;;;;;;;;;143720;587;46022;-56
2021/11/09 05:48:42;;;;;;;57.58;35.58;;;;;;;;;;143722;627;47010;-57
2021/11/09 05:51:10;;;;;;;54.67;36.38;;;;;;;;;;143725;639;46020;-56
2021/11/09 05:53:37;;;;;;;52.67;35.72;;;;;;;;;;143725;604;46020;-56
2021/11/09 05:56:06;;;;;;;46.53;31.80;;;;;;;;;;143727;636;46022;-56
2021/11/09 05:58:33;;;;;;;39.67;29.27;;;;;;;;;;143724;650;46020;-55
2021/11/09 06:01:00;;;;;;;50.78;33.22;;;;;;;;;;143720;577;46020;-57
2021/11/09 06:03:27;;;;;;;54.47;34.95;;;;;;;;;;143725;567;46020;-57
2021/11/09 06:05:55;;;;;;;57.60;39.75;;;;;;;;;;143726;583;46023;-56
2021/11/09 06:08:23;;;;;;;61.22;44.75;;;;;;;;;;143725;633;46020;-56
2021/11/09 06:10:50;;;;;;;66.57;50.65;;;;;;;;;;143719;633;46020;-56
2021/11/09 06:13:17;;;;;;;53.35;38.03;;;;;;;;;;143725;577;46020;-56
2021/11/09 06:15:44;;;;;;;64.37;42.00;;;;;;;;;;143726;588;47020;-56
2021/11/09 06:18:11;;;;;;;70.20;44.05;;;;;;;;;;143725;612;46021;-56
2021/11/09 06:20:38;;;;;;;76.22;47.30;;;;;;;;;;143725;564;46020;-56
2021/11/09 06:23:06;;;;;;;64.10;38.35;;;;;;;;;;143726;617;46020;-56
2021/11/09 06:25:34;;;;;;;49.97;36.22;;;;;;;;;;143727;648;46022;-57
2021/11/09 06:28:04;;;;;;;51.85;37.40;;;;;;;;;;143725;564;46020;-56
2021/11/09 06:30:31;;;;;;;48.13;36.08;;;;;;;;;;143724;569;46020;-56
2021/11/09 06:32:59;;;;;;;47.80;34.22;;;;;;;;;;143727;686;46020;-56
2021/11/09 06:35:26;;;;;;;50.40;36.28;;;;;;;;;;143720;564;46023;-56
2021/11/09 06:37:53;;;;;;;50.08;33.35;;;;;;;;;;143724;609;46048;-57
2021/11/09 06:40:20;;;;;;;62.40;42.20;;;;;;;;;;143724;608;46020;-56
2021/11/09 06:42:48;;;;;;;55.33;37.45;;;;;;;;;;143727;647;46021;-56
2021/11/09 06:45:15;;;;;;;69.40;42.47;;;;;;;;;;143727;597;46022;-56
2021/11/09 06:47:43;;;;;;;74.10;45.35;;;;;;;;;;143725;581;46021;-56
2021/11/09 06:50:10;;;;;;;56.63;38.83;;;;;;;;;;143724;569;46021;-57
2021/11/09 06:52:38;;;;;;;58.00;39.40;;;;;;;;;;143727;608;46020;-56
2021/11/09 06:55:06;;;;;;;72.53;44.45;;;;;;;;;;143726;679;46022;-57
2021/11/09 06:57:33;;;;;;;66.15;46.72;;;;;;;;;;143724;595;46020;-56
2021/11/09 07:00:01;;;;;;;74.32;51.78;;;;;;;;;;143720;572;46020;-57
2021/11/09 07:02:27;;;;;;;110.05;67.70;;;;;;;;;;143726;570;46020;-57
2021/11/09 07:04:55;;;;;;;123.35;71.37;;;;;;;;;;143725;630;47023;-57
2021/11/09 07:07:22;;;;;;;118.65;71.78;;;;;;;;;;143724;684;46020;-56
2021/11/09 07:09:49;;;;;;;85.45;56.10;;;;;;;;;;143722;605;46021;-56
2021/11/09 07:12:16;;;;;;;97.72;59.78;;;;;;;;;;143728;715;46021;-57
2021/11/09 07:14:43;;;;;;;104.68;63.92;;;;;;;;;;143727;592;46022;-56
2021/11/09 07:17:11;;;;;;;104.05;62.35;;;;;;;;;;143726;656;46021;-56
2021/11/09 07:19:40;;;;;;;113.45;60.72;;;;;;;;;;143726;622;46021;-55
2021/11/09 07:22:07;;;;;;;110.05;64.85;;;;;;;;;;143726;569;46020;-57
2021/11/09 07:24:34;;;;;;;160.90;88.60;;;;;;;;;;143720;791;46022;-57
2021/11/09 07:27:02;;;;;;;140.32;75.65;;;;;;;;;;143724;662;46021;-56
2021/11/09 07:29:29;;;;;;;121.28;65.40;;;;;;;;;;143724;772;46020;-57
2021/11/09 07:31:56;;;;;;;109.28;60.47;;;;;;;;;;143729;732;46020;-56
2021/11/09 07:34:23;;;;;;;110.65;58.28;;;;;;;;;;143728;760;46023;-56
2021/11/09 07:36:51;;;;;;;91.07;55.53;;;;;;;;;;143726;656;46028;-57
2021/11/09 07:39:19;;;;;;;90.82;52.17;;;;;;;;;;143727;607;46020;-56
2021/11/09 07:41:48;;;;;;;78.65;49.17;;;;;;;;;;143728;690;46021;-56
2021/11/09 07:44:15;;;;;;;92.07;52.35;;;;;;;;;;143729;569;46022;-56
2021/11/09 07:46:42;;;;;;;84.18;47.67;;;;;;;;;;143724;659;46011;-57
2021/11/09 07:49:09;;;;;;;84.50;50.38;;;;;;;;;;143721;769;46021;-56
2021/11/09 07:51:37;;;;;;;80.03;51.25;;;;;;;;;;143725;566;46020;-57
2021/11/09 07:54:05;;;;;;;81.20;48.95;;;;;;;;;;143727;650;46022;-56
2021/11/09 07:56:34;;;;;;;93.10;59.55;;;;;;;;;;143725;634;46010;-56
2021/11/09 08:02:01;;;;;;;82.30;54.72;;;;;;;;;;143730;703;46020;-56
2021/11/09 08:04:44;;;;;;;91.82;59.00;;;;;;;;;;143730;733;46023;-56
2021/11/09 08:07:24;;;;;;;85.38;53.45;;;;;;;;;;143728;589;46010;-57
2021/11/09 08:09:52;;;;;;;86.22;53.58;;;;;;;;;;143724;852;46020;-56
2021/11/09 08:12:20;;;;;;;87.25;46.85;;;;;;;;;;143726;569;46020;-57
2021/11/09 08:14:47;;;;;;;75.25;48.38;;;;;;;;;;143719;613;46022;-56
2021/11/09 08:17:15;;;;;;;76.87;49.00;;;;;;;;;;143726;585;46917;-57
2021/11/09 08:19:43;;;;;;;78.72;47.67;;;;;;;;;;143724;599;46020;-56
2021/11/09 08:22:10;;;;;;;57.45;37.80;;;;;;;;;;143727;589;46020;-55
2021/11/09 08:24:37;;;;;;;58.95;35.25;;;;;;;;;;143727;594;46022;-56
2021/11/09 08:27:11;;;;;;;67.12;42.05;;;;;;;;;;143864;591;46023;-56
2021/11/09 08:29:39;;;;;;;85.50;48.15;;;;;;;;;;143743;596;46012;-56
2021/11/09 08:32:10;;;;;;;68.53;47.55;;;;;;;;;;143738;630;47022;-55
2021/11/09 08:34:37;;;;;;;72.93;43.58;;;;;;;;;;143740;566;46020;-55
2021/11/09 08:37:04;;;;;;;74.05;40.50;;;;;;;;;;143741;592;46014;-56
2021/11/09 08:39:42;;;;;;;69.87;37.08;;;;;;;;;;143744;606;45020;-56
2021/11/09 08:42:20;;;;;;;85.22;43.47;;;;;;;;;;143740;579;46023;-57
2021/11/09 08:44:55;;;;;;;87.35;44.70;;;;;;;;;;143738;587;46020;-57
2021/11/09 08:47:26;;;;;;;66.82;36.80;;;;;;;;;;143739;613;45913;-57
2021/11/09 08:49:54;;;;;;;66.90;37.20;;;;;;;;;;143743;564;46021;-56
2021/11/09 08:52:23;;;;;;;65.20;37.08;;;;;;;;;;143738;569;47012;-57
2021/11/09 09:05:55;;;;;;;63.87;38.10;;;;;;;;;;143739;612;46034;-57
2021/11/09 09:08:23;;;;;;;60.47;38.33;;;;;;;;;;143740;580;45020;-56
2021/11/09 09:10:50;;;;;;;66.03;41.20;;;;;;;;;;143741;633;46021;-56
2021/11/09 09:13:18;;;;;;;64.30;42.72;;;;;;;;;;143737;630;47020;-56
2021/11/09 09:15:44;;;;;;;53.38;32.53;;;;;;;;;;143738;580;47012;-56
2021/11/09 09:18:12;;;;;;;57.70;37.45;;;;;;;;;;143740;596;46021;-57
2021/11/09 09:20:48;;;;;;;56.28;34.60;;;;;;;;;;143741;600;46020;-56
2021/11/09 09:23:17;;;;;;;56.00;36.72;;;;;;;;;;143740;629;46022;-57
2021/11/09 09:25:51;;;;;;;52.60;32.97;;;;;;;;;;143740;625;46021;-57
2021/11/09 09:31:38;;;;;;;54.45;36.25;;;;;;;;;;143742;589;46022;-57
2021/11/09 09:56:21;;;;;;;48.47;31.98;;;;;;;;;;143739;577;46025;-57
2021/11/09 09:58:49;;;;;;;51.40;33.38;;;;;;;;;;143740;575;46020;-57
2021/11/09 10:01:17;;;;;;;45.65;32.47;;;;;;;;;;143742;566;45039;-57
2021/11/09 10:03:45;;;;;;;45.03;31.33;;;;;;;;;;143741;607;45021;-56
2021/11/09 10:06:11;;;;;;;49.58;33.30;;;;;;;;;;143738;567;46022;-57
2021/11/09 10:08:50;;;;;;;46.03;30.83;;;;;;;;;;143739;612;46021;-56
2021/11/09 10:11:47;;;;;;;53.35;36.03;;;;;;;;;;143741;574;46012;-56
2021/11/09 10:14:34;;;;;;;50.08;35.45;;;;;;;;;;143742;629;45022;-57
2021/11/09 10:17:11;;;;;;;48.50;31.62;;;;;;;;;;143741;601;46021;-55
2021/11/09 10:19:39;;;;;;;50.45;36.22;;;;;;;;;;143740;583;46020;-56
2021/11/09 10:22:29;;;;;;;50.70;36.08;;;;;;;;;;143737;608;46020;-56
2021/11/09 10:25:10;;;;;;;47.60;32.22;;;;;;;;;;143744;628;45022;-56
2021/11/09 10:27:39;;;;;;;49.95;33.42;;;;;;;;;;143740;593;46023;-56
2021/11/09 10:30:21;;;;;;;51.13;34.55;;;;;;;;;;143741;596;46012;-56
2021/11/09 10:32:49;;;;;;;48.45;33.45;;;;;;;;;;143738;637;46021;-57
2021/11/09 10:35:18;;;;;;;49.72;32.17;;;;;;;;;;143740;580;46018;-56
2021/11/09 10:37:51;;;;;;;45.40;31.62;;;;;;;;;;143741;585;46020;-56
2021/11/09 10:40:33;;;;;;;47.15;33.53;;;;;;;;;;143740;571;46021;-56
2021/11/09 10:43:07;;;;;;;44.10;31.50;;;;;;;;;;143740;572;46020;-56
2021/11/09 10:45:36;;;;;;;48.15;33.75;;;;;;;;;;143745;577;46018;-56
2021/11/09 10:48:18;;;;;;;57.62;32.65;;;;;;;;;;143742;588;45052;-57
2021/11/09 10:50:51;;;;;;;53.03;32.72;;;;;;;;;;143741;573;46020;-56
2021/11/09 10:53:32;;;;;;;42.95;29.40;;;;;;;;;;143740;564;45020;-56
2021/11/09 10:56:35;;;;;;;44.05;31.23;;;;;;;;;;143743;607;45021;-57
2021/11/09 10:59:28;;;;;;;52.65;36.63;;;;;;;;;;143740;587;46020;-57
2021/11/09 11:04:44;;;;;;;54.17;34.50;;;;;;;;;;143741;579;46020;-56
2021/11/09 11:07:13;;;;;;;53.70;37.13;;;;;;;;;;143743;569;46020;-55
2021/11/09 11:09:59;;;;;;;58.00;38.25;;;;;;;;;;143738;570;46021;-55
2021/11/09 11:12:27;;;;;;;53.17;37.85;;;;;;;;;;143731;592;48020;-56
2021/11/09 11:14:55;;;;;;;57.67;38.50;;;;;;;;;;143741;591;45020;-56
2021/11/09 11:17:22;;;;;;;44.83;29.25;;;;;;;;;;143745;587;45021;-56
2021/11/09 11:19:55;;;;;;;57.88;35.50;;;;;;;;;;143738;564;46022;-56
2021/11/09 11:22:25;;;;;;;49.85;35.85;;;;;;;;;;143741;585;45919;-56
2021/11/09 11:24:56;;;;;;;56.58;37.45;;;;;;;;;;143742;579;46021;-56
2021/11/09 11:27:26;;;;;;;48.47;34.25;;;;;;;;;;143741;598;45020;-56
2021/11/09 11:29:53;;;;;;;48.20;30.67;;;;;;;;;;143741;619;45915;-56
2021/11/09 11:32:23;;;;;;;51.45;34.17;;;;;;;;;;143740;593;46021;-55
2021/11/09 11:34:53;;;;;;;52.00;35.22;;;;;;;;;;143739;630;46020;-56
2021/11/09 11:37:21;;;;;;;55.88;35.75;;;;;;;;;;143740;621;48020;-56
2021/11/09 11:40:03;;;;;;;56.63;30.98;;;;;;;;;;143741;684;46022;-56
2021/11/09 11:42:40;;;;;;;48.08;31.40;;;;;;;;;;143739;570;46031;-56
2021/11/09 11:45:08;;;;;;;48.25;31.23;;;;;;;;;;143739;696;46020;-56
2021/11/09 11:47:35;;;;;;;52.92;34.38;;;;;;;;;;143742;613;46021;-56
2021/11/09 11:50:20;;;;;;;41.30;30.60;;;;;;;;;;143740;731;46022;-56
2021/11/09 11:52:50;;;;;;;45.47;32.75;;;;;;;;;;143739;585;46020;-56
2021/11/09 11:55:42;;;;;;;55.22;35.17;;;;;;;;;;143743;592;45021;-56
2021/11/09 11:58:13;;;;;;;46.75;32.85;;;;;;;;;;143742;579;45020;-56
2021/11/09 12:00:58;;;;;;;50.42;35.65;;;;;;;;;;143738;579;47021;-56
2021/11/09 12:03:36;;;;;;;55.35;38.22;;;;;;;;;;143741;582;46012;-56
2021/11/09 12:06:19;;;;;;;53.87;39.15;;;;;;;;;;143741;565;46020;-56
2021/11/09 12:08:49;;;;;;;59.47;40.85;;;;;;;;;;143744;630;45021;-56
2021/11/09 12:11:46;;;;;;;53.25;39.58;;;;;;;;;;143740;579;46020;-56
2021/11/09 12:14:15;;;;;;;45.92;30.17;;;;;;;;;;143740;593;46020;-56
2021/11/09 12:16:52;;;;;;;51.90;29.17;;;;;;;;;;143741;600;46021;-56
2021/11/09 12:19:47;;;;;;;52.42;33.40;;;;;;;;;;143741;783;46018;-56
2021/11/09 12:22:55;;;;;;;55.25;40.17;;;;;;;;;;143741;626;46024;-56
2021/11/09 12:25:38;;;;;;;48.33;34.58;;;;;;;;;;143738;610;46917;-56
2021/11/09 12:28:13;;;;;;;46.42;33.05;;;;;;;;;;143742;585;46020;-56
2021/11/09 12:30:47;;;;;;;42.38;29.92;;;;;;;;;;143747;573;46020;-57
2021/11/09 12:33:26;;;;;;;43.20;30.10;;;;;;;;;;143740;579;46020;-56
2021/11/09 12:36:26;;;;;;;46.45;31.65;;;;;;;;;;143742;594;46020;-56
2021/11/09 12:38:57;;;;;;;43.15;30.58;;;;;;;;;;143741;599;45021;-56
2021/11/09 12:41:29;;;;;;;50.67;31.95;;;;;;;;;;143744;608;45028;-58
2021/11/09 12:44:09;;;;;;;49.90;30.75;;;;;;;;;;143742;587;46020;-56
2021/11/09 12:46:39;;;;;;;45.90;29.08;;;;;;;;;;143738;574;45917;-56
2021/11/09 12:49:32;;;;;;;50.20;31.73;;;;;;;;;;143742;572;45031;-56
2021/11/09 12:51:59;;;;;;;41.83;29.20;;;;;;;;;;143743;564;45022;-57
2021/11/09 12:54:28;;;;;;;47.35;30.67;;;;;;;;;;143741;596;46022;-57
2021/11/09 12:57:01;;;;;;;46.20;28.73;;;;;;;;;;143739;599;46020;-56
2021/11/09 12:59:49;;;;;;;55.35;37.38;;;;;;;;;;143741;610;46020;-56
2021/11/09 13:05:23;;;;;;;50.10;30.40;;;;;;;;;;143741;564;46024;-57
2021/11/09 13:07:52;;;;;;;53.00;28.58;;;;;;;;;;143739;603;46020;-56
2021/11/09 13:10:23;;;;;;;48.28;28.40;;;;;;;;;;143741;598;45021;-56
2021/11/09 13:12:52;;;;;;;46.13;30.88;;;;;;;;;;143742;601;46012;-56
2021/11/09 13:15:21;;;;;;;51.28;31.48;;;;;;;;;;143741;569;46022;-56
2021/11/09 13:17:57;;;;;;;43.58;28.30;;;;;;;;;;143739;571;46020;-56
2021/11/09 13:20:37;;;;;;;71.68;49.53;;;;;;;;;;143740;575;46020;-56
2021/11/09 13:23:16;;;;;;;67.68;45.17;;;;;;;;;;143741;594;46012;-56
2021/11/09 13:25:55;;;;;;;51.97;35.72;;;;;;;;;;143737;616;46023;-56
2021/11/09 13:28:28;;;;;;;57.60;39.20;;;;;;;;;;143740;577;45918;-56
2021/11/09 13:31:10;;;;;;;46.22;30.48;;;;;;;;;;143741;565;46021;-56
2021/11/09 13:33:42;;;;;;;45.70;28.95;;;;;;;;;;143744;628;46020;-56
2021/11/09 13:36:10;;;;;;;43.33;28.67;;;;;;;;;;143742;568;46022;-57
2021/11/09 13:38:39;;;;;;;43.60;32.17;;;;;;;;;;143740;586;46021;-56
2021/11/09 13:41:18;;;;;;;52.03;33.72;;;;;;;;;;143742;570;45023;-57
2021/11/09 13:43:54;;;;;;;45.30;28.42;;;;;;;;;;143744;615;45020;-56
2021/11/09 13:46:30;;;;;;;40.80;30.67;;;;;;;;;;143742;584;46020;-56
2021/11/09 13:49:03;;;;;;;45.30;30.60;;;;;;;;;;143742;621;46020;-56
2021/11/09 13:51:38;;;;;;;44.63;28.90;;;;;;;;;;143740;618;45031;-56
2021/11/09 13:54:08;;;;;;;;;;;;;;;;;;143749;968;46020;-56
2021/11/09 13:56:35;;;;;;;53.45;34.83;;;;;;;;;;143748;569;45922;-56
2021/11/09 13:59:14;;;;;;;49.13;32.95;;;;;;;;;;143740;573;46020;-56
2021/11/09 14:04:57;;;;;;;47.08;30.08;;;;;;;;;;143745;608;45026;-56
2021/11/09 14:10:41;;;;;;;41.55;30.00;;;;;;;;;;143742;569;45021;-56
2021/11/09 14:13:36;;;;;;;42.40;30.12;;;;;;;;;;143742;625;46020;-56
2021/11/09 14:16:18;;;;;;;48.45;29.17;;;;;;;;;;143744;566;46023;-56
2021/11/09 14:18:52;;;;;;;44.20;29.37;;;;;;;;;;143744;616;45910;-57
2021/11/09 14:21:33;;;;;;;41.63;28.60;;;;;;;;;;143739;604;46020;-56
2021/11/09 14:24:24;;;;;;;47.55;29.48;;;;;;;;;;143742;572;45021;-56
2021/11/09 14:27:12;;;;;;;41.08;28.12;;;;;;;;;;143741;619;45022;-56
2021/11/09 14:29:52;;;;;;;38.28;24.98;;;;;;;;;;143741;607;46022;-56
2021/11/09 14:32:22;;;;;;;47.67;25.30;;;;;;;;;;143733;569;46020;-56
2021/11/09 14:35:21;;;;;;;40.33;25.48;;;;;;;;;;143738;578;46020;-56
2021/11/09 14:38:04;;;;;;;33.13;24.08;;;;;;;;;;143743;601;46020;-56
2021/11/09 14:40:44;;;;;;;33.83;23.50;;;;;;;;;;143743;570;46023;-56
2021/11/09 14:43:20;;;;;;;37.35;22.37;;;;;;;;;;143741;587;46020;-56
2021/11/09 14:45:53;;;;;;;42.17;23.42;;;;;;;;;;143743;587;45911;-56
2021/11/09 14:48:30;;;;;;;40.65;22.35;;;;;;;;;;143745;603;45020;-56
2021/11/09 14:51:04;;;;;;;38.53;22.95;;;;;;;;;;143733;675;47012;-56
2021/11/09 14:53:38;;;;;;;;;;;;;;;;;;143746;981;46021;-57
2021/11/09 14:56:13;;;;;;;35.88;24.15;;;;;;;;;;143748;719;45031;-56
2021/11/09 14:58:57;;;;;;;41.80;25.20;;;;;;;;;;143745;742;46020;-56
2021/11/09 15:01:34;;;;;;;42.03;24.70;;;;;;;;;;143742;585;46021;-56
2021/11/09 15:04:17;;;;;;;34.83;25.20;;;;;;;;;;143741;565;46020;-56
2021/11/09 15:13:05;;;;;;;46.88;27.35;;;;;;;;;;143743;591;45024;-56
2021/11/09 15:29:42;;;;;;;43.05;27.98;;;;;;;;;;143743;570;46020;-56
2021/11/09 15:32:23;;;;;;;45.00;28.27;;;;;;;;;;143743;774;45021;-57
2021/11/09 15:37:45;;;;;;;37.03;25.60;;;;;;;;;;143742;570;45919;-56
2021/11/09 15:40:13;;;;;;;38.75;24.98;;;;;;;;;;143745;678;46020;-56
2021/11/09 15:42:42;;;;;;;48.40;26.27;;;;;;;;;;143745;583;46020;-57
2021/11/09 15:45:10;;;;;;;41.35;24.30;;;;;;;;;;143743;583;46021;-56
2021/11/09 15:47:38;;;;;;;35.45;25.80;;;;;;;;;;143741;638;46020;-57
2021/11/09 15:50:07;;;;;;;38.50;24.50;;;;;;;;;;143739;631;46020;-56
2021/11/09 15:52:34;;;;;;;34.53;23.83;;;;;;;;;;143744;629;46013;-56
2021/11/09 15:55:01;;;;;;;41.70;24.45;;;;;;;;;;143741;734;46020;-56
2021/11/09 15:57:29;;;;;;;31.77;23.25;;;;;;;;;;143741;707;45918;-56
2021/11/09 15:59:56;;;;;;;31.15;23.15;;;;;;;;;;143745;599;45037;-55
2021/11/09 16:02:25;;;;;;;36.17;22.85;;;;;;;;;;143746;583;46020;-56
2021/11/09 16:04:54;;;;;;;33.40;23.90;;;;;;;;;;143742;589;46020;-56
2021/11/09 16:07:24;;;;;;;28.62;21.83;;;;;;;;;;143742;577;46021;-56
2021/11/09 16:09:55;;;;;;;36.08;22.40;;;;;;;;;;143741;618;46020;-56
2021/11/09 16:12:23;;;;;;;32.78;23.23;;;;;;;;;;143742;567;46020;-57
2021/11/09 16:14:50;;;;;;;41.97;25.33;;;;;;;;;;143742;821;46022;-56
2021/11/09 16:17:18;;;;;;;32.70;22.87;;;;;;;;;;143744;564;46012;-56
2021/11/09 16:19:46;;;;;;;56.03;24.45;;;;;;;;;;143743;588;45020;-57
2021/11/09 16:22:19;;;;;;;38.20;22.80;;;;;;;;;;143745;808;45021;-56
2021/11/09 16:24:47;;;;;;;35.45;23.17;;;;;;;;;;143746;633;45023;-56
2021/11/09 16:27:14;;;;;;;35.55;22.95;;;;;;;;;;143742;604;46020;-56
2021/11/09 16:30:19;;;;;;;34.60;24.10;;;;;;;;;;143743;564;46021;-56
2021/11/09 16:33:03;;;;;;;37.03;23.70;;;;;;;;;;143744;848;45020;-56
2021/11/09 16:35:40;;;;;;;33.72;23.45;;;;;;;;;;143745;648;46020;-57
2021/11/09 16:38:12;;;;;;;40.47;25.02;;;;;;;;;;143741;637;46020;-57
2021/11/09 16:40:42;;;;;;;34.10;24.10;;;;;;;;;;143743;577;45020;-57
2021/11/09 16:43:12;;;;;;;40.17;23.48;;;;;;;;;;143741;594;46020;-56
2021/11/09 16:46:09;;;;;;;37.67;24.60;;;;;;;;;;143743;608;46023;-56
2021/11/09 16:48:36;;;;;;;42.20;25.58;;;;;;;;;;143741;589;46916;-57
2021/11/09 16:54:07;;;;;;;32.38;23.75;;;;;;;;;;143741;786;46012;-56
2021/11/09 16:57:03;;;;;;;38.65;24.80;;;;;;;;;;143743;690;46022;-56
2021/11/09 17:02:56;;;;;;;40.33;23.98;;;;;;;;;;143742;569;46020;-57
2021/11/09 17:05:47;;;;;;;40.42;24.27;;;;;;;;;;143744;720;45020;-56
2021/11/09 18:20:29;;;;;;;33.67;22.50;;;;;;;;;;143741;632;46020;-56
2021/11/09 18:22:58;;;;;;;38.55;24.20;;;;;;;;;;143742;569;46012;-56
2021/11/09 18:25:29;;;;;;;38.25;23.20;;;;;;;;;;143740;621;46022;-56
2021/11/09 18:27:57;;;;;;;35.15;22.65;;;;;;;;;;143743;589;45917;-56
2021/11/09 18:30:28;;;;;;;30.88;21.73;;;;;;;;;;143746;626;45021;-57
2021/11/09 18:32:55;;;;;;;40.63;22.13;;;;;;;;;;143744;582;46020;-58